createdAt,value
2023-01-18T00:00:41.487Z,98163.50
2023-01-18T00:01:43.801Z,98164.63
2023-01-18T00:02:46.979Z,98159.44
2023-01-18T00:03:49.301Z,98153.88
2023-01-18T00:04:51.978Z,98150.59
2023-01-18T00:05:54.981Z,98150.06
2023-01-18T00:06:57.402Z,98148.13
2023-01-18T00:07:59.633Z,98151.28
2023-01-18T00:09:01.900Z,98153.13
2023-01-18T00:10:04.792Z,98153.47
2023-01-18T00:11:11.270Z,98148.91
2023-01-18T00:12:13.499Z,98152.16
2023-01-18T00:13:15.702Z,98155.31
2023-01-18T00:14:18.123Z,98154.94
2023-01-18T00:15:20.334Z,98153.63
2023-01-18T00:16:22.628Z,98169.03
2023-01-18T00:17:24.871Z,98160.69
2023-01-18T00:18:27.271Z,98167.22
2023-01-18T00:19:29.789Z,98161.88
2023-01-18T00:20:32.351Z,98168.38
2023-01-18T00:21:34.858Z,98162.81
2023-01-18T00:22:37.074Z,98165.09
2023-01-18T00:23:39.407Z,98168.00
2023-01-18T00:24:41.746Z,98161.53
2023-01-18T00:25:43.946Z,98159.41
2023-01-18T00:26:46.275Z,98168.78
2023-01-18T00:27:51.040Z,98163.00
2023-01-18T00:28:57.126Z,98171.47
2023-01-18T00:30:00.110Z,98179.66
2023-01-18T00:31:02.832Z,98184.13
2023-01-18T00:32:05.661Z,98187.09
2023-01-18T00:33:09.480Z,98189.13
2023-01-18T00:34:11.860Z,98190.38
2023-01-18T00:35:15.755Z,98190.66
2023-01-18T00:36:18.837Z,98190.31
2023-01-18T00:37:21.261Z,98188.91
2023-01-18T00:38:23.596Z,98198.56
2023-01-18T00:39:25.800Z,98183.00
2023-01-18T00:40:30.543Z,98186.44
2023-01-18T00:41:32.743Z,98187.81
2023-01-18T00:42:53.360Z,98193.16
2023-01-18T00:43:55.597Z,98195.34
2023-01-18T00:44:57.755Z,98184.91
2023-01-18T00:46:00.355Z,98195.50
2023-01-18T00:47:02.671Z,98197.47
2023-01-18T00:48:05.181Z,98195.88
2023-01-18T00:49:07.483Z,98195.53
2023-01-18T00:50:10.299Z,98188.94
2023-01-18T00:51:15.462Z,98198.69
2023-01-18T00:52:17.663Z,98188.63
2023-01-18T00:53:19.938Z,98182.63
2023-01-18T00:54:22.428Z,98186.88
2023-01-18T00:55:24.843Z,98179.28
2023-01-18T00:56:28.695Z,98188.56
2023-01-18T00:57:31.131Z,98184.34
2023-01-18T00:58:33.509Z,98188.34
2023-01-18T00:59:35.696Z,98194.41
2023-01-18T01:00:38.747Z,98184.22
2023-01-18T01:01:41.043Z,98182.56
2023-01-18T01:02:43.429Z,98176.63
2023-01-18T01:04:04.371Z,98173.78
2023-01-18T01:05:25.462Z,98184.13
2023-01-18T01:06:44.974Z,98181.78
2023-01-18T01:07:49.080Z,98189.34
2023-01-18T01:08:51.309Z,98178.38
2023-01-18T01:09:53.534Z,98174.69
2023-01-18T01:11:05.905Z,98182.25
2023-01-18T01:12:26.986Z,98183.69
2023-01-18T01:13:48.321Z,98187.94
2023-01-18T01:15:09.028Z,98188.53
2023-01-18T01:16:30.356Z,98188.38
2023-01-18T01:17:53.276Z,98187.53
2023-01-18T01:19:14.775Z,98191.81
2023-01-18T01:20:35.640Z,98199.84
2023-01-18T01:21:57.602Z,98190.78
2023-01-18T01:23:34.411Z,98194.75
2023-01-18T01:24:55.577Z,98198.06
2023-01-18T01:26:13.185Z,98196.16
2023-01-18T01:27:15.788Z,98202.16
2023-01-18T01:28:18.340Z,98191.13
2023-01-18T01:29:20.546Z,98200.25
2023-01-18T01:30:23.137Z,98197.09
2023-01-18T01:31:25.359Z,98192.38
2023-01-18T01:32:27.771Z,98199.06
2023-01-18T01:33:31.226Z,98198.56
2023-01-18T01:34:33.473Z,98193.56
2023-01-18T01:35:36.014Z,98197.47
2023-01-18T01:36:38.248Z,98204.03
2023-01-18T01:37:40.570Z,98197.31
2023-01-18T01:38:43.545Z,98199.13
2023-01-18T01:39:45.704Z,98192.50
2023-01-18T01:41:06.905Z,98197.81
2023-01-18T01:42:11.674Z,98202.19
2023-01-18T01:43:13.931Z,98196.25
2023-01-18T01:44:20.221Z,98194.94
2023-01-18T01:45:27.604Z,98193.41
2023-01-18T01:46:48.872Z,98198.38
2023-01-18T01:47:53.070Z,98196.69
2023-01-18T01:49:18.362Z,98200.28
2023-01-18T01:50:28.842Z,98191.94
2023-01-18T01:51:33.186Z,98200.81
2023-01-18T01:52:38.011Z,98197.88
2023-01-18T01:53:40.961Z,98194.56
2023-01-18T01:54:55.458Z,98196.91
2023-01-18T01:55:57.872Z,98199.94
2023-01-18T01:57:06.235Z,98204.38
2023-01-18T01:58:13.718Z,98201.56
2023-01-18T01:59:18.766Z,98201.00
2023-01-18T02:00:25.353Z,98197.47
2023-01-18T02:01:29.827Z,98189.47
2023-01-18T02:02:34.278Z,98201.47
2023-01-18T02:03:40.685Z,98201.16
2023-01-18T02:04:44.441Z,98204.59
2023-01-18T02:05:56.673Z,98200.81
2023-01-18T02:06:59.087Z,98202.88
2023-01-18T02:08:03.060Z,98208.56
2023-01-18T02:09:12.710Z,98203.78
2023-01-18T02:10:15.267Z,98209.56
2023-01-18T02:11:17.466Z,98216.03
2023-01-18T02:12:20.164Z,98215.19
2023-01-18T02:13:24.802Z,98213.03
2023-01-18T02:14:28.209Z,98219.53
2023-01-18T02:15:45.760Z,98214.97
2023-01-18T02:17:19.090Z,98221.16
2023-01-18T02:18:34.350Z,98212.59
2023-01-18T02:19:58.403Z,98213.88
2023-01-18T02:21:24.039Z,98213.91
2023-01-18T02:22:47.688Z,98212.19
2023-01-18T02:24:25.640Z,98209.25
2023-01-18T02:25:28.559Z,98208.97
2023-01-18T02:26:52.088Z,98203.53
2023-01-18T02:28:17.738Z,98210.59
2023-01-18T02:29:49.090Z,98208.72
2023-01-18T02:30:56.136Z,98205.84
2023-01-18T02:32:32.670Z,98211.63
2023-01-18T02:33:48.884Z,98209.91
2023-01-18T02:35:05.246Z,98205.03
2023-01-18T02:36:07.645Z,98202.78
2023-01-18T02:37:24.389Z,98209.78
2023-01-18T02:38:37.897Z,98209.94
2023-01-18T02:40:01.214Z,98209.38
2023-01-18T02:41:12.930Z,98206.66
2023-01-18T02:42:38.675Z,98208.09
2023-01-18T02:44:01.984Z,98215.16
2023-01-18T02:45:35.980Z,98205.47
2023-01-18T02:46:40.387Z,98209.91
2023-01-18T02:47:44.946Z,98208.81
2023-01-18T02:48:49.483Z,98204.41
2023-01-18T02:49:51.967Z,98203.13
2023-01-18T02:50:54.179Z,98199.81
2023-01-18T02:52:07.481Z,98201.47
2023-01-18T02:53:14.952Z,98203.22
2023-01-18T02:54:24.360Z,98210.19
2023-01-18T02:55:52.645Z,98205.38
2023-01-18T02:56:56.542Z,98205.75
2023-01-18T02:58:13.668Z,98212.09
2023-01-18T02:59:29.796Z,98203.94
2023-01-18T03:00:37.926Z,98208.09
2023-01-18T03:01:49.019Z,98197.06
2023-01-18T03:02:54.138Z,98196.44
2023-01-18T03:04:01.107Z,98198.28
2023-01-18T03:05:03.861Z,98195.34
2023-01-18T03:06:08.673Z,98195.66
2023-01-18T03:07:16.072Z,98196.13
2023-01-18T03:08:21.997Z,98191.50
2023-01-18T03:09:27.286Z,98198.75
2023-01-18T03:10:31.647Z,98198.06
2023-01-18T03:11:45.568Z,98200.81
2023-01-18T03:12:53.668Z,98201.59
2023-01-18T03:14:02.661Z,98197.97
2023-01-18T03:15:17.569Z,98202.66
2023-01-18T03:16:25.976Z,98196.03
2023-01-18T03:17:41.521Z,98198.19
2023-01-18T03:19:03.338Z,98191.56
2023-01-18T03:20:12.131Z,98189.97
2023-01-18T03:21:14.428Z,98197.25
2023-01-18T03:22:17.933Z,98194.09
2023-01-18T03:23:38.496Z,98193.94
2023-01-18T03:24:42.790Z,98198.25
2023-01-18T03:25:48.130Z,98193.03
2023-01-18T03:26:55.115Z,98190.72
2023-01-18T03:28:20.753Z,98187.72
2023-01-18T03:29:42.521Z,98179.81
2023-01-18T03:31:05.218Z,98181.41
2023-01-18T03:32:35.907Z,98178.63
2023-01-18T03:33:45.022Z,98177.75
2023-01-18T03:34:50.347Z,98176.53
2023-01-18T03:35:55.587Z,98178.72
2023-01-18T03:37:03.120Z,98179.13
2023-01-18T03:38:05.728Z,98183.22
2023-01-18T03:39:13.135Z,98179.66
2023-01-18T03:40:28.890Z,98171.09
2023-01-18T03:41:35.371Z,98181.34
2023-01-18T03:42:52.890Z,98185.72
2023-01-18T03:43:59.472Z,98179.50
2023-01-18T03:45:22.371Z,98177.19
2023-01-18T03:46:27.099Z,98175.50
2023-01-18T03:47:30.252Z,98174.34
2023-01-18T03:48:33.500Z,98178.53
2023-01-18T03:49:36.466Z,98180.09
2023-01-18T03:50:49.773Z,98175.16
2023-01-18T03:52:08.779Z,98177.06
2023-01-18T03:53:16.848Z,98178.56
2023-01-18T03:54:46.799Z,98179.13
2023-01-18T03:55:57.033Z,98178.75
2023-01-18T03:57:11.608Z,98178.00
2023-01-18T03:58:19.397Z,98167.44
2023-01-18T03:59:22.502Z,98172.69
2023-01-18T04:00:25.706Z,98169.09
2023-01-18T04:01:28.391Z,98176.47
2023-01-18T04:02:32.001Z,98174.44
2023-01-18T04:03:35.090Z,98174.28
2023-01-18T04:04:37.756Z,98175.13
2023-01-18T04:05:40.386Z,98184.69
2023-01-18T04:06:42.994Z,98182.94
2023-01-18T04:07:45.256Z,98187.53
2023-01-18T04:08:47.666Z,98188.88
2023-01-18T04:09:49.998Z,98190.22
2023-01-18T04:10:52.402Z,98190.72
2023-01-18T04:11:54.634Z,98183.06
2023-01-18T04:12:58.238Z,98188.63
2023-01-18T04:14:00.665Z,98185.78
2023-01-18T04:15:04.726Z,98182.41
2023-01-18T04:16:07.362Z,98185.91
2023-01-18T04:17:09.590Z,98180.53
2023-01-18T04:18:12.338Z,98182.09
2023-01-18T04:19:14.797Z,98182.41
2023-01-18T04:20:17.078Z,98184.38
2023-01-18T04:21:19.647Z,98191.28
2023-01-18T04:22:21.872Z,98176.47
2023-01-18T04:23:24.644Z,98181.69
2023-01-18T04:24:26.910Z,98181.53
2023-01-18T04:25:32.106Z,98183.94
2023-01-18T04:26:34.419Z,98184.56
2023-01-18T04:27:36.658Z,98186.06
2023-01-18T04:28:39.074Z,98184.84
2023-01-18T04:29:41.492Z,98177.94
2023-01-18T04:30:43.705Z,98179.56
2023-01-18T04:31:46.139Z,98179.28
2023-01-18T04:32:49.142Z,98175.91
2023-01-18T04:33:52.140Z,98178.53
2023-01-18T04:34:54.351Z,98182.06
2023-01-18T04:35:56.510Z,98179.31
2023-01-18T04:36:58.748Z,98182.03
2023-01-18T04:38:01.105Z,98180.72
2023-01-18T04:39:03.274Z,98184.16
2023-01-18T04:40:06.587Z,98180.72
2023-01-18T04:41:08.807Z,98185.59
2023-01-18T04:42:11.040Z,98180.38
2023-01-18T04:43:13.410Z,98177.88
2023-01-18T04:44:16.692Z,98188.31
2023-01-18T04:45:19.676Z,98177.53
2023-01-18T04:46:22.010Z,98180.91
2023-01-18T04:47:24.313Z,98169.88
2023-01-18T04:48:26.716Z,98182.63
2023-01-18T04:49:28.901Z,98173.00
2023-01-18T04:50:31.118Z,98173.44
2023-01-18T04:51:33.487Z,98188.03
2023-01-18T04:52:35.637Z,98191.69
2023-01-18T04:53:38.119Z,98192.75
2023-01-18T04:54:40.473Z,98193.28
2023-01-18T04:55:42.930Z,98179.81
2023-01-18T04:56:45.452Z,98185.34
2023-01-18T04:57:59.231Z,98185.56
2023-01-18T04:59:01.653Z,98187.19
2023-01-18T05:00:04.341Z,98187.69
2023-01-18T05:01:09.113Z,98194.63
2023-01-18T05:02:12.266Z,98192.63
2023-01-18T05:03:14.464Z,98196.28
2023-01-18T05:04:16.914Z,98194.41
2023-01-18T05:05:19.108Z,98190.66
2023-01-18T05:06:21.449Z,98196.50
2023-01-18T05:07:26.781Z,98191.66
2023-01-18T05:08:28.959Z,98196.44
2023-01-18T05:09:31.299Z,98193.56
2023-01-18T05:10:33.750Z,98194.41
2023-01-18T05:11:35.914Z,98199.56
2023-01-18T05:12:38.286Z,98199.72
2023-01-18T05:13:41.326Z,98196.47
2023-01-18T05:14:43.718Z,98201.25
2023-01-18T05:15:45.908Z,98199.81
2023-01-18T05:16:48.096Z,98208.31
2023-01-18T05:17:50.287Z,98203.94
2023-01-18T05:18:52.469Z,98203.09
2023-01-18T05:19:54.977Z,98206.16
2023-01-18T05:20:57.177Z,98197.72
2023-01-18T05:21:59.419Z,98200.47
2023-01-18T05:23:10.492Z,98202.88
2023-01-18T05:24:12.907Z,98205.97
2023-01-18T05:25:15.313Z,98211.38
2023-01-18T05:26:19.639Z,98211.03
2023-01-18T05:27:22.326Z,98219.75
2023-01-18T05:28:26.247Z,98217.25
2023-01-18T05:29:28.458Z,98218.66
2023-01-18T05:30:30.792Z,98220.41
2023-01-18T05:31:33.022Z,98219.38
2023-01-18T05:32:35.616Z,98228.06
2023-01-18T05:33:37.821Z,98221.16
2023-01-18T05:34:40.271Z,98219.84
2023-01-18T05:35:49.879Z,98227.16
2023-01-18T05:36:52.062Z,98229.19
2023-01-18T05:37:54.258Z,98230.28
2023-01-18T05:38:56.474Z,98227.81
2023-01-18T05:39:59.489Z,98239.19
2023-01-18T05:41:01.795Z,98235.34
2023-01-18T05:42:04.744Z,98238.66
2023-01-18T05:43:07.088Z,98243.13
2023-01-18T05:44:09.454Z,98242.41
2023-01-18T05:45:12.101Z,98247.16
2023-01-18T05:46:14.334Z,98241.34
2023-01-18T05:47:16.501Z,98250.00
2023-01-18T05:48:20.214Z,98247.13
2023-01-18T05:49:22.362Z,98239.38
2023-01-18T05:50:24.527Z,98249.00
2023-01-18T05:51:26.751Z,98256.66
2023-01-18T05:52:29.011Z,98254.88
2023-01-18T05:53:31.475Z,98257.06
2023-01-18T05:54:33.940Z,98254.75
2023-01-18T05:55:36.424Z,98260.44
2023-01-18T05:56:38.665Z,98260.81
2023-01-18T05:57:40.853Z,98259.69
2023-01-18T05:58:43.313Z,98258.75
2023-01-18T05:59:45.530Z,98250.50
2023-01-18T06:00:47.967Z,98252.28
2023-01-18T06:01:50.171Z,98255.09
2023-01-18T06:02:53.762Z,98263.28
2023-01-18T06:03:55.919Z,98264.44
2023-01-18T06:04:58.296Z,98262.97
2023-01-18T06:06:01.840Z,98262.59
2023-01-18T06:07:04.056Z,98254.28
2023-01-18T06:08:06.214Z,98257.19
2023-01-18T06:09:08.416Z,98267.66
2023-01-18T06:10:11.174Z,98258.31
2023-01-18T06:11:13.651Z,98248.03
2023-01-18T06:12:16.020Z,98250.81
2023-01-18T06:13:18.200Z,98248.47
2023-01-18T06:14:20.392Z,98251.34
2023-01-18T06:15:22.827Z,98255.00
2023-01-18T06:16:25.248Z,98250.78
2023-01-18T06:17:27.787Z,98256.00
2023-01-18T06:18:32.948Z,98258.31
2023-01-18T06:19:36.303Z,98258.25
2023-01-18T06:20:38.851Z,98259.63
2023-01-18T06:21:41.207Z,98262.06
2023-01-18T06:22:45.568Z,98255.72
2023-01-18T06:23:47.963Z,98255.94
2023-01-18T06:24:50.241Z,98268.81
2023-01-18T06:25:53.086Z,98268.53
2023-01-18T06:26:55.244Z,98262.94
2023-01-18T06:27:57.438Z,98267.50
2023-01-18T06:28:59.851Z,98266.97
2023-01-18T06:30:02.020Z,98266.75
2023-01-18T06:31:07.946Z,98273.03
2023-01-18T06:32:10.131Z,98275.03
2023-01-18T06:33:12.282Z,98270.72
2023-01-18T06:34:14.511Z,98281.13
2023-01-18T06:35:16.890Z,98281.59
2023-01-18T06:36:19.309Z,98274.94
2023-01-18T06:37:21.481Z,98278.25
2023-01-18T06:38:23.629Z,98281.84
2023-01-18T06:39:26.041Z,98284.84
2023-01-18T06:40:28.819Z,98279.94
2023-01-18T06:41:31.172Z,98290.34
2023-01-18T06:42:33.348Z,98288.34
2023-01-18T06:43:35.532Z,98284.25
2023-01-18T06:44:37.697Z,98291.19
2023-01-18T06:45:40.813Z,98290.94
2023-01-18T06:46:46.760Z,98285.69
2023-01-18T06:47:49.577Z,98286.63
2023-01-18T06:48:51.785Z,98286.41
2023-01-18T06:49:54.000Z,98281.06
2023-01-18T06:50:57.670Z,98288.47
2023-01-18T06:52:00.046Z,98292.25
2023-01-18T06:53:02.376Z,98297.00
2023-01-18T06:54:04.665Z,98288.75
2023-01-18T06:55:07.087Z,98285.13
2023-01-18T06:56:12.977Z,98290.00
2023-01-18T06:57:15.603Z,98290.84
2023-01-18T06:58:17.776Z,98292.16
2023-01-18T06:59:20.179Z,98289.84
2023-01-18T07:00:22.930Z,98298.44
2023-01-18T07:01:26.543Z,98301.97
2023-01-18T07:02:29.057Z,98301.69
2023-01-18T07:03:31.528Z,98307.94
2023-01-18T07:04:37.886Z,98301.97
2023-01-18T07:05:40.128Z,98309.50
2023-01-18T07:06:42.630Z,98311.25
2023-01-18T07:07:45.950Z,98314.00
2023-01-18T07:08:51.172Z,98309.31
2023-01-18T07:09:53.420Z,98310.97
2023-01-18T07:10:55.655Z,98310.56
2023-01-18T07:11:58.157Z,98317.97
2023-01-18T07:13:00.998Z,98311.19
2023-01-18T07:14:03.350Z,98312.84
2023-01-18T07:15:20.868Z,98313.00
2023-01-18T07:16:24.030Z,98312.75
2023-01-18T07:17:26.235Z,98316.00
2023-01-18T07:18:30.516Z,98320.31
2023-01-18T07:19:32.727Z,98317.53
2023-01-18T07:20:35.094Z,98322.41
2023-01-18T07:21:37.264Z,98326.25
2023-01-18T07:22:39.425Z,98319.75
2023-01-18T07:23:42.566Z,98321.50
2023-01-18T07:24:45.619Z,98330.78
2023-01-18T07:25:47.985Z,98321.81
2023-01-18T07:26:50.486Z,98326.88
2023-01-18T07:27:52.987Z,98333.59
2023-01-18T07:28:56.180Z,98324.91
2023-01-18T07:29:58.333Z,98320.16
2023-01-18T07:31:01.414Z,98326.88
2023-01-18T07:32:04.192Z,98324.09
2023-01-18T07:33:07.896Z,98324.56
2023-01-18T07:34:11.020Z,98333.69
2023-01-18T07:35:13.255Z,98331.59
2023-01-18T07:36:15.482Z,98325.19
2023-01-18T07:37:17.703Z,98329.13
2023-01-18T07:38:21.367Z,98322.63
2023-01-18T07:39:23.597Z,98323.41
2023-01-18T07:40:25.875Z,98321.50
2023-01-18T07:41:30.103Z,98321.00
2023-01-18T07:42:33.266Z,98326.03
2023-01-18T07:43:37.528Z,98318.03
2023-01-18T07:44:39.777Z,98326.91
2023-01-18T07:45:43.496Z,98332.25
2023-01-18T07:46:45.780Z,98332.84
2023-01-18T07:47:47.959Z,98328.09
2023-01-18T07:48:50.414Z,98329.28
2023-01-18T07:49:52.570Z,98322.81
2023-01-18T07:51:01.202Z,98330.72
2023-01-18T07:52:03.545Z,98322.88
2023-01-18T07:53:08.551Z,98329.09
2023-01-18T07:54:11.029Z,98327.84
2023-01-18T07:55:13.246Z,98323.56
2023-01-18T07:56:17.502Z,98324.81
2023-01-18T07:57:19.675Z,98329.53
2023-01-18T07:58:22.149Z,98331.91
2023-01-18T07:59:24.484Z,98331.41
2023-01-18T08:00:27.870Z,98334.69
2023-01-18T08:01:30.293Z,98327.81
2023-01-18T08:02:33.844Z,98329.84
2023-01-18T08:03:37.036Z,98326.00
2023-01-18T08:04:40.413Z,98335.06
2023-01-18T08:05:43.134Z,98336.06
2023-01-18T08:06:46.301Z,98338.06
2023-01-18T08:07:48.498Z,98332.03
2023-01-18T08:08:51.341Z,98337.13
2023-01-18T08:09:54.489Z,98348.31
2023-01-18T08:10:58.064Z,98340.72
2023-01-18T08:12:01.483Z,98334.41
2023-01-18T08:13:04.236Z,98339.03
2023-01-18T08:14:06.709Z,98347.25
2023-01-18T08:15:09.356Z,98342.63
2023-01-18T08:16:12.325Z,98345.25
2023-01-18T08:17:14.574Z,98345.75
2023-01-18T08:18:16.962Z,98340.56
2023-01-18T08:19:19.674Z,98341.47
2023-01-18T08:20:22.109Z,98342.91
2023-01-18T08:21:24.315Z,98345.97
2023-01-18T08:22:26.532Z,98346.72
2023-01-18T08:23:29.183Z,98349.84
2023-01-18T08:24:31.392Z,98348.66
2023-01-18T08:25:33.704Z,98348.13
2023-01-18T08:26:36.117Z,98349.34
2023-01-18T08:27:38.838Z,98359.09
2023-01-18T08:28:41.805Z,98352.34
2023-01-18T08:29:46.892Z,98348.56
2023-01-18T08:30:49.355Z,98359.25
2023-01-18T08:31:52.533Z,98360.53
2023-01-18T08:32:58.875Z,98353.88
2023-01-18T08:34:02.583Z,98357.38
2023-01-18T08:35:05.228Z,98357.47
2023-01-18T08:36:10.496Z,98360.50
2023-01-18T08:37:12.860Z,98366.19
2023-01-18T08:38:16.402Z,98363.03
2023-01-18T08:39:18.753Z,98365.44
2023-01-18T08:40:23.735Z,98366.91
2023-01-18T08:41:30.853Z,98358.31
2023-01-18T08:42:33.049Z,98362.91
2023-01-18T08:43:35.529Z,98368.66
2023-01-18T08:44:37.998Z,98365.94
2023-01-18T08:45:40.367Z,98369.94
2023-01-18T08:46:42.647Z,98372.25
2023-01-18T08:47:44.896Z,98376.50
2023-01-18T08:48:58.025Z,98370.53
2023-01-18T08:50:00.626Z,98369.94
2023-01-18T08:51:03.561Z,98367.47
2023-01-18T08:52:06.826Z,98377.84
2023-01-18T08:53:09.245Z,98377.66
2023-01-18T08:54:11.511Z,98383.59
2023-01-18T08:55:14.079Z,98381.66
2023-01-18T08:56:16.247Z,98379.50
2023-01-18T08:57:18.629Z,98378.84
2023-01-18T08:58:20.854Z,98378.34
2023-01-18T08:59:23.848Z,98374.78
2023-01-18T09:00:30.507Z,98381.34
2023-01-18T09:01:32.803Z,98376.81
2023-01-18T09:02:35.315Z,98376.19
2023-01-18T09:03:37.868Z,98384.03
2023-01-18T09:04:40.121Z,98381.03
2023-01-18T09:05:42.591Z,98388.91
2023-01-18T09:06:44.859Z,98380.81
2023-01-18T09:07:47.459Z,98380.00
2023-01-18T09:08:50.354Z,98380.44
2023-01-18T09:09:52.531Z,98375.31
2023-01-18T09:10:55.356Z,98379.25
2023-01-18T09:11:58.643Z,98387.63
2023-01-18T09:13:01.148Z,98386.53
2023-01-18T09:14:03.890Z,98379.56
2023-01-18T09:15:06.631Z,98388.44
2023-01-18T09:16:10.752Z,98388.44
2023-01-18T09:17:14.271Z,98390.44
2023-01-18T09:18:16.483Z,98392.00
2023-01-18T09:19:18.839Z,98392.44
2023-01-18T09:20:21.020Z,98390.25
2023-01-18T09:21:23.793Z,98396.72
2023-01-18T09:22:26.047Z,98394.81
2023-01-18T09:23:28.256Z,98391.00
2023-01-18T09:24:30.637Z,98385.47
2023-01-18T09:25:33.270Z,98396.13
2023-01-18T09:26:35.494Z,98393.16
2023-01-18T09:27:37.684Z,98393.72
2023-01-18T09:28:39.967Z,98394.53
2023-01-18T09:29:42.402Z,98404.09
2023-01-18T09:30:44.803Z,98398.72
2023-01-18T09:31:49.369Z,98397.78
2023-01-18T09:32:51.972Z,98395.88
2023-01-18T09:33:57.369Z,98398.09
2023-01-18T09:35:03.551Z,98399.38
2023-01-18T09:36:09.818Z,98401.97
2023-01-18T09:37:12.193Z,98406.69
2023-01-18T09:38:14.417Z,98407.38
2023-01-18T09:39:16.958Z,98410.06
2023-01-18T09:40:21.709Z,98402.63
2023-01-18T09:41:39.062Z,98409.94
2023-01-18T09:42:44.795Z,98412.03
2023-01-18T09:43:53.847Z,98403.44
2023-01-18T09:44:59.730Z,98408.28
2023-01-18T09:46:02.093Z,98403.25
2023-01-18T09:47:20.716Z,98409.28
2023-01-18T09:48:32.741Z,98403.28
2023-01-18T09:49:44.018Z,98409.03
2023-01-18T09:50:46.197Z,98406.19
2023-01-18T09:52:05.836Z,98411.38
2023-01-18T09:53:49.075Z,98405.09
2023-01-18T09:54:53.928Z,98408.25
2023-01-18T09:56:16.448Z,98412.97
2023-01-18T09:57:21.555Z,98406.41
2023-01-18T09:58:42.869Z,98407.97
2023-01-18T09:59:55.811Z,98402.00
2023-01-18T10:01:05.581Z,98396.19
2023-01-18T10:02:18.722Z,98402.25
2023-01-18T10:03:33.186Z,98400.13
2023-01-18T10:04:40.976Z,98396.09
2023-01-18T10:06:08.516Z,98399.94
2023-01-18T10:07:16.906Z,98392.25
2023-01-18T10:08:25.437Z,98395.34
2023-01-18T10:09:32.510Z,98398.50
2023-01-18T10:11:02.723Z,98407.47
2023-01-18T10:12:27.065Z,98402.09
2023-01-18T10:14:05.411Z,98402.09
2023-01-18T10:15:13.784Z,98396.75
2023-01-18T10:16:16.352Z,98397.22
2023-01-18T10:17:24.690Z,98402.19
2023-01-18T10:18:27.081Z,98400.19
2023-01-18T10:19:32.203Z,98395.75
2023-01-18T10:20:46.839Z,98400.06
2023-01-18T10:21:55.168Z,98405.34
2023-01-18T10:23:03.485Z,98402.22
2023-01-18T10:24:24.304Z,98401.38
2023-01-18T10:26:01.623Z,98402.03
2023-01-18T10:27:35.876Z,98396.59
2023-01-18T10:28:40.814Z,98404.19
2023-01-18T10:29:53.970Z,98409.09
2023-01-18T10:31:11.420Z,98409.28
2023-01-18T10:32:18.739Z,98406.53
2023-01-18T10:33:24.851Z,98402.88
2023-01-18T10:34:32.833Z,98404.72
2023-01-18T10:35:40.266Z,98406.94
2023-01-18T10:37:06.993Z,98410.97
2023-01-18T10:38:15.379Z,98408.78
2023-01-18T10:39:34.331Z,98396.81
2023-01-18T10:40:39.676Z,98401.91
2023-01-18T10:41:43.977Z,98401.78
2023-01-18T10:42:49.137Z,98405.03
2023-01-18T10:43:51.957Z,98405.66
2023-01-18T10:44:54.142Z,98406.75
2023-01-18T10:45:56.465Z,98399.06
2023-01-18T10:47:01.333Z,98406.88
2023-01-18T10:48:28.850Z,98405.59
2023-01-18T10:49:35.252Z,98407.13
2023-01-18T10:50:40.259Z,98404.50
2023-01-18T10:51:44.796Z,98402.97
2023-01-18T10:52:47.125Z,98406.09
2023-01-18T10:53:49.507Z,98412.13
2023-01-18T10:55:03.608Z,98407.38
2023-01-18T10:56:27.040Z,98416.19
2023-01-18T10:57:36.489Z,98410.88
2023-01-18T10:58:50.988Z,98415.06
2023-01-18T10:59:53.946Z,98404.25
2023-01-18T11:00:58.168Z,98402.75
2023-01-18T11:02:01.153Z,98406.19
2023-01-18T11:03:05.685Z,98414.63
2023-01-18T11:04:21.153Z,98408.03
2023-01-18T11:05:38.112Z,98409.53
2023-01-18T11:07:12.705Z,98408.28
2023-01-18T11:08:33.117Z,98403.31
2023-01-18T11:09:56.215Z,98408.03
2023-01-18T11:11:16.234Z,98406.16
2023-01-18T11:12:34.914Z,98414.81
2023-01-18T11:13:41.545Z,98401.81
2023-01-18T11:14:43.885Z,98407.53
2023-01-18T11:15:46.132Z,98409.72
2023-01-18T11:17:18.841Z,98406.38
2023-01-18T11:18:21.230Z,98404.50
2023-01-18T11:19:23.606Z,98403.75
2023-01-18T11:20:50.521Z,98413.88
2023-01-18T11:21:53.888Z,98412.47
2023-01-18T11:22:59.387Z,98411.41
2023-01-18T11:24:07.698Z,98419.34
2023-01-18T11:25:17.513Z,98414.22
2023-01-18T11:26:22.688Z,98413.75
2023-01-18T11:27:25.906Z,98420.63
2023-01-18T11:28:39.386Z,98416.94
2023-01-18T11:29:44.454Z,98415.66
2023-01-18T11:31:00.228Z,98420.63
2023-01-18T11:32:06.549Z,98415.34
2023-01-18T11:33:18.468Z,98420.81
2023-01-18T11:34:23.586Z,98413.13
2023-01-18T11:35:37.200Z,98422.28
2023-01-18T11:36:43.124Z,98419.59
2023-01-18T11:37:45.331Z,98411.53
2023-01-18T11:38:47.968Z,98406.88
2023-01-18T11:39:50.140Z,98415.66
2023-01-18T11:41:16.035Z,98409.78
2023-01-18T11:42:25.280Z,98415.72
2023-01-18T11:43:29.573Z,98419.34
2023-01-18T11:44:36.514Z,98422.81
2023-01-18T11:45:46.096Z,98417.69
2023-01-18T11:46:55.502Z,98424.19
2023-01-18T11:48:05.832Z,98429.97
2023-01-18T11:49:31.507Z,98435.88
2023-01-18T11:50:55.347Z,98430.94
2023-01-18T11:52:13.228Z,98432.19
2023-01-18T11:53:34.975Z,98430.84
2023-01-18T11:54:40.121Z,98423.56
2023-01-18T11:56:15.982Z,98423.50
2023-01-18T11:57:18.428Z,98423.50
2023-01-18T11:58:25.771Z,98434.19
2023-01-18T11:59:32.160Z,98428.59
2023-01-18T12:00:55.233Z,98431.25
2023-01-18T12:02:25.226Z,98429.09
2023-01-18T12:03:47.662Z,98431.47
2023-01-18T12:05:01.727Z,98441.16
2023-01-18T12:06:17.984Z,98431.63
2023-01-18T12:07:40.241Z,98441.25
2023-01-18T12:08:55.004Z,98436.66
2023-01-18T12:10:13.147Z,98436.59
2023-01-18T12:11:24.550Z,98435.72
2023-01-18T12:12:35.302Z,98433.63
2023-01-18T12:14:13.559Z,98438.06
2023-01-18T12:15:27.506Z,98446.34
2023-01-18T12:16:51.966Z,98447.50
2023-01-18T12:18:31.773Z,98442.03
2023-01-18T12:19:58.594Z,98445.66
2023-01-18T12:21:18.958Z,98454.91
2023-01-18T12:23:13.252Z,98453.44
2023-01-18T12:24:45.760Z,98459.97
2023-01-18T12:26:23.904Z,98453.09
2023-01-18T12:27:49.261Z,98458.94
2023-01-18T12:29:09.733Z,98455.78
2023-01-18T12:30:24.260Z,98461.03
2023-01-18T12:31:39.711Z,98457.88
2023-01-18T12:32:55.205Z,98463.03
2023-01-18T12:34:03.483Z,98463.03
2023-01-18T12:35:37.147Z,98458.63
2023-01-18T12:37:16.794Z,98474.47
2023-01-18T12:38:32.427Z,98468.00
2023-01-18T12:40:13.368Z,98474.09
2023-01-18T12:41:28.946Z,98464.97
2023-01-18T12:42:55.664Z,98483.25
2023-01-18T12:44:25.547Z,98483.13
2023-01-18T12:45:38.972Z,98482.09
2023-01-18T12:47:00.620Z,98482.16
2023-01-18T12:48:25.915Z,98479.41
2023-01-18T12:49:32.608Z,98481.16
2023-01-18T12:50:39.382Z,98484.50
2023-01-18T12:51:42.399Z,98478.59
2023-01-18T12:52:51.824Z,98487.44
2023-01-18T12:54:28.489Z,98493.16
2023-01-18T12:55:33.430Z,98495.91
2023-01-18T12:56:40.466Z,98494.56
2023-01-18T12:57:44.286Z,98496.06
2023-01-18T12:58:56.204Z,98491.41
2023-01-18T13:00:15.305Z,98495.97
2023-01-18T13:01:21.779Z,98495.81
2023-01-18T13:02:36.716Z,98499.00
2023-01-18T13:03:43.629Z,98509.41
2023-01-18T13:04:53.928Z,98508.69
2023-01-18T13:06:00.927Z,98510.16
2023-01-18T13:07:11.336Z,98513.66
2023-01-18T13:08:20.968Z,98508.63
2023-01-18T13:09:27.454Z,98518.28
2023-01-18T13:10:30.064Z,98516.75
2023-01-18T13:11:37.298Z,98520.38
2023-01-18T13:12:40.605Z,98516.78